createdAt,value
2018-12-13T00:00:39.727Z,1.70
2018-12-13T00:03:08.257Z,1.60
2018-12-13T00:05:36.762Z,1.50
2018-12-13T00:08:05.310Z,1.80
2018-12-13T00:10:33.784Z,1.50
2018-12-13T00:13:02.304Z,1.60
2018-12-13T00:15:31.891Z,1.60
2018-12-13T00:18:00.688Z,1.20
2018-12-13T00:20:29.276Z,1.20
2018-12-13T00:22:57.793Z,0.70
2018-12-13T00:25:26.287Z,0.70
2018-12-13T00:27:54.821Z,0.70
2018-12-13T00:30:23.307Z,0.60
2018-12-13T00:32:51.832Z,0.50
2018-12-13T00:35:20.351Z,1.00
2018-12-13T00:37:49.547Z,0.60
2018-12-13T00:40:18.899Z,0.60
2018-12-13T00:42:47.421Z,0.90
2018-12-13T00:45:15.905Z,1.00
2018-12-13T00:47:44.421Z,0.60
2018-12-13T00:50:12.902Z,0.60
2018-12-13T00:52:41.400Z,0.80
2018-12-13T00:55:09.887Z,0.60
2018-12-13T00:57:38.406Z,0.60
2018-12-13T01:00:07.529Z,0.70
2018-12-13T01:02:36.053Z,0.50
2018-12-13T01:05:04.898Z,0.60
2018-12-13T01:07:33.510Z,0.30
2018-12-13T01:10:02.087Z,0.10
2018-12-13T01:12:30.604Z,0.00
2018-12-13T01:14:59.092Z,0.10
2018-12-13T01:17:27.612Z,0.40
2018-12-13T01:19:56.115Z,0.80
2018-12-13T01:22:24.631Z,1.00
2018-12-13T01:24:53.671Z,1.30
2018-12-13T01:27:22.489Z,0.50
2018-12-13T01:29:51.061Z,0.90
2018-12-13T01:32:19.629Z,1.00
2018-12-13T01:34:48.121Z,0.40
2018-12-13T01:37:16.736Z,0.30
2018-12-13T01:39:45.247Z,0.20
2018-12-13T01:42:13.781Z,0.40
2018-12-13T01:44:42.400Z,0.70
2018-12-13T01:47:10.910Z,0.30
2018-12-13T01:49:39.386Z,0.00
2018-12-13T01:52:07.906Z,0.40
2018-12-13T01:54:36.390Z,0.60
2018-12-13T01:57:04.913Z,0.30
2018-12-13T01:59:33.413Z,0.10
2018-12-13T02:02:02.084Z,0.60
2018-12-13T02:04:30.592Z,0.20
2018-12-13T02:06:59.213Z,0.20
2018-12-13T02:09:27.700Z,0.30
2018-12-13T02:11:56.208Z,0.80
2018-12-13T02:14:24.734Z,0.50
2018-12-13T02:16:53.343Z,0.30
2018-12-13T02:19:21.851Z,0.30
2018-12-13T02:21:50.348Z,0.20
2018-12-13T02:24:18.979Z,0.30
2018-12-13T02:26:47.468Z,0.00
2018-12-13T02:29:15.980Z,0.20
2018-12-13T02:31:44.536Z,0.40
2018-12-13T02:34:13.043Z,0.20
2018-12-13T02:36:41.530Z,0.10
2018-12-13T02:39:10.032Z,0.20
2018-12-13T02:41:38.538Z,-0.10
2018-12-13T02:44:07.076Z,-0.10
2018-12-13T02:46:35.612Z,0.00
2018-12-13T02:49:09.273Z,0.20
2018-12-13T02:51:37.902Z,0.00
2018-12-13T02:54:06.565Z,-0.10
2018-12-13T02:56:35.089Z,0.30
2018-12-13T02:59:03.805Z,0.30
2018-12-13T03:01:32.301Z,0.10
2018-12-13T03:04:00.844Z,0.40
2018-12-13T03:06:29.341Z,0.40
2018-12-13T03:08:57.856Z,-0.30
2018-12-13T03:11:26.365Z,-0.10
2018-12-13T03:13:54.921Z,0.00
2018-12-13T03:16:23.429Z,-0.20
2018-12-13T03:18:52.314Z,0.00
2018-12-13T03:21:20.798Z,0.40
2018-12-13T03:23:49.332Z,-0.10
2018-12-13T03:26:17.944Z,-0.40
2018-12-13T03:28:46.460Z,-0.20
2018-12-13T03:31:14.957Z,-0.30
2018-12-13T03:33:43.494Z,-0.10
2018-12-13T03:36:11.995Z,0.20
2018-12-13T03:38:40.509Z,-0.40
2018-12-13T03:41:09.006Z,-0.20
2018-12-13T03:43:37.530Z,0.00
2018-12-13T03:46:06.207Z,-0.50
2018-12-13T03:48:34.926Z,-0.50
2018-12-13T03:51:03.420Z,-0.20
2018-12-13T03:53:31.935Z,-0.20
2018-12-13T03:56:00.502Z,-0.20
2018-12-13T03:58:29.021Z,-0.30
2018-12-13T04:00:57.654Z,0.10
2018-12-13T04:03:26.242Z,-0.10
2018-12-13T04:05:54.781Z,-0.10
2018-12-13T04:08:23.291Z,0.40
2018-12-13T04:10:51.797Z,-0.20
2018-12-13T04:13:20.327Z,0.20
2018-12-13T04:15:48.821Z,0.00
2018-12-13T04:18:17.485Z,-0.10
2018-12-13T04:20:46.006Z,-0.10
2018-12-13T04:23:14.555Z,0.00
2018-12-13T04:25:43.047Z,0.40
2018-12-13T04:28:11.565Z,0.00
2018-12-13T04:30:40.122Z,-0.30
2018-12-13T04:33:08.656Z,-0.20
2018-12-13T04:35:37.131Z,0.10
2018-12-13T04:38:05.669Z,-0.10
2018-12-13T04:40:34.216Z,-0.30
2018-12-13T04:43:02.724Z,0.10
2018-12-13T04:45:31.249Z,0.40
2018-12-13T04:47:59.751Z,0.30
2018-12-13T04:50:28.264Z,0.00
2018-12-13T04:52:56.768Z,0.00
2018-12-13T04:55:25.296Z,-0.30
2018-12-13T04:57:53.795Z,-0.20
2018-12-13T05:00:22.328Z,-0.40
2018-12-13T05:02:50.833Z,-0.50
2018-12-13T05:05:19.352Z,-0.10
2018-12-13T05:07:47.870Z,-0.30
2018-12-13T05:10:27.770Z,-0.30
2018-12-13T05:12:56.310Z,-0.60
2018-12-13T05:15:24.839Z,-0.40
2018-12-13T05:17:53.354Z,-0.50
2018-12-13T05:20:21.875Z,-0.50
2018-12-13T05:22:50.367Z,-0.10
2018-12-13T05:25:18.898Z,0.00
2018-12-13T05:27:47.393Z,0.00
2018-12-13T05:30:15.921Z,0.20
2018-12-13T05:32:44.583Z,-0.10
2018-12-13T05:35:13.103Z,-0.30
2018-12-13T05:37:42.803Z,-0.40
2018-12-13T05:40:12.308Z,-0.10
2018-12-13T05:42:40.911Z,-0.50
2018-12-13T05:45:09.615Z,-0.30
2018-12-13T05:47:38.135Z,-0.20
2018-12-13T05:50:06.825Z,-0.20
2018-12-13T05:52:35.337Z,-0.10
2018-12-13T05:55:03.936Z,-0.30
2018-12-13T05:57:32.427Z,-0.40
2018-12-13T06:00:00.948Z,-0.20
2018-12-13T06:02:29.465Z,-0.30
2018-12-13T06:04:58.049Z,0.20
2018-12-13T06:07:26.760Z,-0.50
2018-12-13T06:09:55.370Z,-0.70
2018-12-13T06:12:23.936Z,-0.40
2018-12-13T06:14:52.509Z,-0.30
2018-12-13T06:17:21.048Z,-0.20
2018-12-13T06:19:49.617Z,-0.40
2018-12-13T06:22:18.127Z,-0.20
2018-12-13T06:24:46.660Z,-0.50
2018-12-13T06:27:15.165Z,-0.20
2018-12-13T06:29:48.807Z,0.00
2018-12-13T06:32:14.254Z,-0.10
2018-12-13T06:34:42.892Z,-0.60
2018-12-13T06:37:11.385Z,-0.60
2018-12-13T06:39:40.007Z,-0.60
2018-12-13T06:42:08.520Z,-0.80
2018-12-13T06:44:37.047Z,-0.80
2018-12-13T06:47:05.568Z,-0.20
2018-12-13T06:49:34.116Z,-0.40
2018-12-13T06:52:02.705Z,-0.10
2018-12-13T06:54:31.237Z,-0.50
2018-12-13T06:57:00.634Z,-0.40
2018-12-13T06:59:29.337Z,-0.10
2018-12-13T07:01:57.841Z,-0.10
2018-12-13T07:04:26.409Z,-0.40
2018-12-13T07:06:54.942Z,-0.10
2018-12-13T07:09:23.464Z,-0.50
2018-12-13T07:11:51.965Z,-0.10
2018-12-13T07:14:21.942Z,-0.30
2018-12-13T07:16:51.846Z,-0.20
2018-12-13T07:19:21.902Z,-0.60
2018-12-13T07:21:52.394Z,-0.60
2018-12-13T07:24:22.611Z,-0.70
2018-12-13T07:26:53.045Z,-0.20
2018-12-13T07:29:22.861Z,-0.60
2018-12-13T07:31:52.969Z,-0.40
2018-12-13T07:34:22.894Z,-0.60
2018-12-13T07:36:52.604Z,-0.40
2018-12-13T07:39:22.634Z,-0.50
2018-12-13T07:41:52.443Z,-0.60
2018-12-13T07:44:23.130Z,-0.10
2018-12-13T07:46:53.233Z,-0.10
2018-12-13T07:49:23.176Z,-0.20
2018-12-13T07:51:52.870Z,-0.30
2018-12-13T07:54:22.923Z,-0.40
2018-12-13T07:56:52.796Z,-0.10
2018-12-13T07:59:22.839Z,-0.30
2018-12-13T08:01:52.886Z,-0.10
2018-12-13T08:04:22.865Z,-0.40
2018-12-13T08:06:52.628Z,-0.40
2018-12-13T08:09:22.710Z,-0.50
2018-12-13T08:11:52.750Z,-0.20
2018-12-13T08:14:22.740Z,-0.30
2018-12-13T08:16:52.903Z,-0.10
2018-12-13T08:19:22.840Z,-0.30
2018-12-13T08:21:52.603Z,-0.50
2018-12-13T08:24:21.248Z,-0.50
2018-12-13T08:26:52.022Z,-0.50
2018-12-13T08:29:20.548Z,-0.50
2018-12-13T08:31:49.166Z,-0.20
2018-12-13T08:34:17.809Z,0.10
2018-12-13T08:36:46.439Z,-0.20
2018-12-13T08:39:14.960Z,-0.10
2018-12-13T08:41:43.509Z,-0.10
2018-12-13T08:44:12.041Z,-0.10
2018-12-13T08:46:40.597Z,-0.10
2018-12-13T08:49:09.096Z,-0.20
2018-12-13T08:51:37.629Z,-0.20
2018-12-13T08:54:06.229Z,-0.20
2018-12-13T08:56:34.767Z,-0.10
2018-12-13T09:00:27.694Z,-0.10
2018-12-13T09:02:56.364Z,-0.30
2018-12-13T09:05:24.943Z,0.00
2018-12-13T09:07:53.463Z,-0.30
2018-12-13T09:10:21.992Z,0.40
2018-12-13T09:12:50.586Z,0.20
2018-12-13T09:15:19.865Z,-0.20
2018-12-13T09:17:48.596Z,-0.30
2018-12-13T09:20:17.120Z,-0.10
2018-12-13T09:22:45.647Z,-0.30
2018-12-13T09:25:14.170Z,0.10
2018-12-13T09:27:42.695Z,0.30
2018-12-13T09:30:11.351Z,-0.20
2018-12-13T09:32:39.925Z,0.00
2018-12-13T09:35:08.426Z,0.00
2018-12-13T09:37:36.941Z,-0.20
2018-12-13T09:40:06.044Z,-0.40
2018-12-13T09:42:34.576Z,-0.30
2018-12-13T09:45:03.432Z,-0.30
2018-12-13T09:47:32.000Z,-0.10
2018-12-13T09:50:00.512Z,-0.30
2018-12-13T09:52:29.032Z,-0.20
2018-12-13T09:54:57.559Z,0.30
2018-12-13T09:57:26.143Z,0.00
2018-12-13T09:59:54.644Z,0.10
2018-12-13T10:02:23.157Z,0.00
2018-12-13T10:04:51.727Z,-0.10
2018-12-13T10:07:20.246Z,0.60
2018-12-13T10:09:49.240Z,1.10
2018-12-13T10:12:17.804Z,1.20
2018-12-13T10:14:46.435Z,1.50
2018-12-13T10:17:15.043Z,1.40
2018-12-13T10:19:43.865Z,1.10
2018-12-13T10:22:13.140Z,1.90
2018-12-13T10:24:41.647Z,1.00
2018-12-13T10:27:10.173Z,1.40
2018-12-13T10:29:38.693Z,1.60
2018-12-13T10:32:07.216Z,2.10
2018-12-13T10:34:35.752Z,1.70
2018-12-13T10:37:04.282Z,3.00
2018-12-13T10:39:32.785Z,3.00
2018-12-13T10:42:01.323Z,2.90
2018-12-13T10:44:35.364Z,1.50
2018-12-13T10:47:05.255Z,1.90
2018-12-13T10:49:33.751Z,2.40
2018-12-13T10:52:02.297Z,2.00
2018-12-13T10:54:31.023Z,2.80
2018-12-13T10:56:59.539Z,3.10
2018-12-13T10:59:28.036Z,3.20
2018-12-13T11:02:01.580Z,2.80
2018-12-13T11:04:30.302Z,2.40
2018-12-13T11:06:58.932Z,1.40
2018-12-13T11:09:27.469Z,1.90
2018-12-13T11:11:56.070Z,2.50
2018-12-13T11:14:24.627Z,1.60
2018-12-13T11:16:53.247Z,2.40
2018-12-13T11:19:21.777Z,2.20
2018-12-13T11:21:50.279Z,1.50
2018-12-13T11:24:18.822Z,2.30
2018-12-13T11:26:47.348Z,2.10
2018-12-13T11:30:24.962Z,1.90
2018-12-13T11:32:53.526Z,1.70
2018-12-13T11:35:22.119Z,2.50
2018-12-13T11:37:50.638Z,2.00
2018-12-13T11:40:19.151Z,1.90
2018-12-13T11:42:47.641Z,1.80
2018-12-13T11:45:16.167Z,2.40
2018-12-13T11:47:44.659Z,1.60
2018-12-13T11:50:13.183Z,1.30
2018-12-13T11:52:41.835Z,2.30
2018-12-13T11:55:22.437Z,3.10
2018-12-13T11:57:50.956Z,1.60
2018-12-13T12:00:19.605Z,1.10
2018-12-13T12:02:48.102Z,2.60
2018-12-13T12:05:16.617Z,1.80
2018-12-13T12:07:45.151Z,1.50
2018-12-13T12:10:13.929Z,2.10
2018-12-13T12:12:42.464Z,2.50
2018-12-13T12:15:11.302Z,2.20
2018-12-13T12:17:40.224Z,2.00
2018-12-13T12:20:09.082Z,1.50
2018-12-13T12:22:37.590Z,0.90
2018-12-13T12:25:07.101Z,1.30
2018-12-13T12:27:35.867Z,1.30
2018-12-13T12:30:05.101Z,1.80
2018-12-13T12:32:33.588Z,2.60
2018-12-13T12:35:02.103Z,1.70
2018-12-13T12:37:30.639Z,2.20
2018-12-13T12:39:59.365Z,2.80
2018-12-13T12:42:27.893Z,1.90
2018-12-13T12:44:56.403Z,1.20
2018-12-13T12:47:24.913Z,0.80
2018-12-13T12:49:53.545Z,0.40
2018-12-13T12:52:22.650Z,0.40
2018-12-13T12:54:51.526Z,0.60
2018-12-13T12:57:20.801Z,1.10
2018-12-13T12:59:51.356Z,0.80
2018-12-13T13:02:19.848Z,2.60
2018-12-13T13:04:48.633Z,1.50
2018-12-13T13:07:17.133Z,2.20
2018-12-13T13:09:45.713Z,1.10
2018-12-13T13:12:14.226Z,1.10
2018-12-13T13:14:42.765Z,2.60
2018-12-13T13:17:11.285Z,1.10
2018-12-13T13:19:39.773Z,0.90
2018-12-13T13:22:08.289Z,1.10
2018-12-13T13:24:36.827Z,2.20
2018-12-13T13:27:05.345Z,1.10
2018-12-13T13:29:33.836Z,1.70
2018-12-13T13:32:02.350Z,2.10
2018-12-13T13:34:30.923Z,2.20
2018-12-13T13:36:59.467Z,2.20
2018-12-13T13:39:31.555Z,2.10
2018-12-13T13:41:58.753Z,3.20
2018-12-13T13:44:31.540Z,1.10
2018-12-13T13:47:00.156Z,1.20
2018-12-13T13:49:28.674Z,0.90
2018-12-13T13:51:57.915Z,1.40
2018-12-13T13:54:26.528Z,0.50
2018-12-13T13:56:55.149Z,0.50
2018-12-13T13:59:24.081Z,1.30
2018-12-13T14:01:52.621Z,2.70
2018-12-13T14:04:21.168Z,2.60
2018-12-13T14:06:49.752Z,1.70
2018-12-13T14:09:18.248Z,2.10
2018-12-13T14:11:46.921Z,1.30
2018-12-13T14:14:15.445Z,1.40
2018-12-13T14:16:44.037Z,0.90
2018-12-13T14:19:12.531Z,0.20
2018-12-13T14:21:41.091Z,1.00
2018-12-13T14:24:09.621Z,1.90
2018-12-13T14:26:38.150Z,1.60
2018-12-13T14:29:06.653Z,0.80
2018-12-13T14:31:35.195Z,1.90
2018-12-13T14:34:03.751Z,1.10
2018-12-13T14:36:32.267Z,1.20
2018-12-13T14:39:00.791Z,0.90
2018-12-13T14:41:29.344Z,1.60
2018-12-13T14:43:57.985Z,1.20
2018-12-13T14:46:26.519Z,-0.20
2018-12-13T14:48:55.049Z,1.10
2018-12-13T14:51:23.618Z,0.70
2018-12-13T14:53:52.148Z,0.40
2018-12-13T14:56:20.675Z,0.20
2018-12-13T14:58:49.287Z,1.10
2018-12-13T15:01:17.792Z,1.50
2018-12-13T15:03:46.995Z,1.00
2018-12-13T15:06:15.503Z,0.50
2018-12-13T15:08:44.048Z,0.10
2018-12-13T15:11:12.539Z,0.30
2018-12-13T15:13:41.224Z,0.80
2018-12-13T15:16:09.737Z,1.20
2018-12-13T15:18:38.309Z,0.40
2018-12-13T15:21:06.796Z,0.90
2018-12-13T15:23:35.533Z,1.10
2018-12-13T15:26:04.040Z,1.10
2018-12-13T15:28:32.575Z,0.50
2018-12-13T15:31:01.073Z,0.70
2018-12-13T15:33:29.613Z,1.10
2018-12-13T15:35:58.117Z,-0.20
2018-12-13T15:38:26.639Z,0.10
2018-12-13T15:40:55.747Z,0.80
2018-12-13T15:43:24.456Z,1.20
2018-12-13T15:45:52.978Z,1.20
2018-12-13T15:48:21.602Z,0.60
2018-12-13T15:50:50.100Z,1.30
2018-12-13T15:53:18.631Z,1.50
2018-12-13T15:55:47.137Z,1.60
2018-12-13T15:58:15.640Z,1.10
2018-12-13T16:00:44.177Z,0.40
2018-12-13T16:03:12.713Z,0.40
2018-12-13T16:05:41.204Z,1.10
2018-12-13T16:08:09.774Z,1.60
2018-12-13T16:10:38.260Z,0.90
2018-12-13T16:13:06.822Z,0.30
2018-12-13T16:15:35.327Z,0.50
2018-12-13T16:18:03.856Z,0.10
2018-12-13T16:20:32.385Z,0.40
2018-12-13T16:23:00.919Z,0.70
2018-12-13T16:25:29.395Z,0.30
2018-12-13T16:27:57.892Z,0.80
2018-12-13T16:30:27.648Z,1.00
2018-12-13T16:32:56.347Z,0.60
2018-12-13T16:35:24.866Z,0.20
2018-12-13T16:37:53.352Z,0.60
2018-12-13T16:40:21.866Z,0.40
2018-12-13T16:42:50.423Z,0.00
2018-12-13T16:45:18.953Z,1.20
2018-12-13T16:47:47.440Z,0.50
2018-12-13T16:50:15.951Z,-0.10
2018-12-13T16:52:44.524Z,-0.10
2018-12-13T16:55:13.244Z,1.40
2018-12-13T16:57:41.724Z,0.40
2018-12-13T17:00:10.507Z,0.90
2018-12-13T17:02:39.008Z,0.10
2018-12-13T17:05:07.525Z,-0.40
2018-12-13T17:07:36.013Z,0.60
2018-12-13T17:10:05.214Z,-0.20
2018-12-13T17:12:35.425Z,0.40
2018-12-13T17:15:04.210Z,0.30
2018-12-13T17:17:32.705Z,0.50
2018-12-13T17:20:01.217Z,0.40
2018-12-13T17:22:29.719Z,-0.10
2018-12-13T17:24:58.230Z,-0.20
2018-12-13T17:27:26.788Z,-0.30
2018-12-13T17:29:55.316Z,0.00
2018-12-13T17:32:23.845Z,-0.30
2018-12-13T17:34:52.368Z,0.50
2018-12-13T17:37:21.006Z,0.40
2018-12-13T17:39:49.600Z,0.20
2018-12-13T17:42:18.098Z,0.20
2018-12-13T17:44:46.628Z,0.10
2018-12-13T17:47:15.141Z,-0.20
2018-12-13T17:49:43.657Z,-0.20
2018-12-13T17:52:12.161Z,-0.50
2018-12-13T17:54:40.672Z,-0.80
2018-12-13T17:57:09.177Z,0.20
2018-12-13T17:59:37.704Z,1.00
2018-12-13T18:02:06.217Z,-0.30
2018-12-13T18:04:34.744Z,-0.60
2018-12-13T18:07:03.294Z,-0.40
2018-12-13T18:09:31.789Z,-0.50
2018-12-13T18:12:00.308Z,0.00
2018-12-13T18:14:28.892Z,-0.70
2018-12-13T18:16:57.415Z,-0.40
2018-12-13T18:19:25.925Z,-0.20
2018-12-13T18:21:54.504Z,0.00
2018-12-13T18:24:23.064Z,0.10
2018-12-13T18:26:51.575Z,0.60
2018-12-13T18:29:20.054Z,-0.10
2018-12-13T18:31:48.586Z,0.10
2018-12-13T18:34:17.077Z,-0.30
2018-12-13T18:36:45.637Z,-0.10
2018-12-13T18:39:14.139Z,0.40
2018-12-13T18:41:42.660Z,0.90
2018-12-13T18:44:11.154Z,0.30
2018-12-13T18:46:39.692Z,1.20
2018-12-13T18:49:08.224Z,-0.30
2018-12-13T18:51:36.944Z,-0.10
2018-12-13T18:54:05.453Z,-0.40
2018-12-13T18:56:33.992Z,-0.60
2018-12-13T18:59:02.529Z,-0.30
2018-12-13T19:01:31.071Z,-0.40
2018-12-13T19:03:59.565Z,0.20
2018-12-13T19:06:28.206Z,0.10
2018-12-13T19:08:56.707Z,0.50
2018-12-13T19:11:25.286Z,-0.10
2018-12-13T19:13:53.821Z,-0.10
2018-12-13T19:16:22.348Z,-0.30
2018-12-13T19:18:50.849Z,-0.10
2018-12-13T19:21:19.403Z,-0.10
2018-12-13T19:23:47.923Z,0.10
2018-12-13T19:26:16.467Z,0.60
2018-12-13T19:28:45.075Z,0.70
2018-12-13T19:31:13.616Z,0.10
2018-12-13T19:33:42.115Z,-0.10
2018-12-13T19:36:10.669Z,0.20
2018-12-13T19:38:39.210Z,0.10
2018-12-13T19:41:07.834Z,-0.20
2018-12-13T19:43:36.368Z,0.20
2018-12-13T19:46:04.895Z,0.90
2018-12-13T19:48:33.385Z,1.10
2018-12-13T19:51:02.215Z,0.60
2018-12-13T19:53:30.734Z,0.10
2018-12-13T19:55:59.290Z,-0.20
2018-12-13T19:58:27.879Z,0.40
2018-12-13T20:00:56.413Z,1.00
2018-12-13T20:03:25.009Z,1.30
2018-12-13T20:05:53.540Z,1.00
2018-12-13T20:08:22.016Z,0.80
2018-12-13T20:10:54.584Z,0.80
2018-12-13T20:13:21.064Z,0.10
2018-12-13T20:15:49.755Z,0.00
2018-12-13T20:18:18.248Z,-0.40
2018-12-13T20:20:46.769Z,0.50
2018-12-13T20:23:15.288Z,-0.20
2018-12-13T20:25:43.813Z,-0.30
2018-12-13T20:28:12.586Z,0.10
2018-12-13T20:30:41.098Z,0.20
2018-12-13T20:33:09.651Z,0.40
2018-12-13T20:35:38.478Z,-0.70
2018-12-13T20:38:08.009Z,-0.30
2018-12-13T20:40:36.540Z,-0.60
2018-12-13T20:43:05.272Z,0.00
2018-12-13T20:45:33.805Z,0.10
2018-12-13T20:48:02.310Z,-0.40
2018-12-13T20:50:30.823Z,-0.20
2018-12-13T20:52:59.427Z,0.10
2018-12-13T20:55:27.929Z,-0.70
2018-12-13T20:57:56.461Z,-0.10
2018-12-13T21:00:24.988Z,-0.20
2018-12-13T21:02:53.499Z,-0.10
2018-12-13T21:05:22.002Z,0.60
2018-12-13T21:07:52.557Z,-0.20
2018-12-13T21:10:21.070Z,-0.20
2018-12-13T21:12:49.656Z,0.70
2018-12-13T21:15:18.172Z,0.40
2018-12-13T21:17:46.684Z,0.20
2018-12-13T21:20:15.173Z,0.20
2018-12-13T21:22:43.789Z,-0.10
2018-12-13T21:25:12.284Z,0.60
2018-12-13T21:27:40.857Z,0.80
2018-12-13T21:30:09.390Z,1.10
2018-12-13T21:32:38.041Z,0.60
2018-12-13T21:35:07.222Z,-0.20
2018-12-13T21:37:35.921Z,-0.10
2018-12-13T21:40:04.893Z,-0.30
2018-12-13T21:42:33.400Z,-0.50
2018-12-13T21:45:01.906Z,-0.10
2018-12-13T21:47:30.424Z,0.10
2018-12-13T21:49:59.699Z,0.50
2018-12-13T21:52:28.426Z,-0.50
2018-12-13T21:54:57.469Z,-0.70
2018-12-13T21:57:26.318Z,-0.20
2018-12-13T21:59:54.896Z,-0.10
2018-12-13T22:02:23.437Z,0.30
2018-12-13T22:04:51.934Z,-0.20
2018-12-13T22:07:20.456Z,-0.20
2018-12-13T22:09:48.959Z,0.00
2018-12-13T22:12:17.510Z,-0.10
2018-12-13T22:14:45.995Z,0.30
2018-12-13T22:17:14.570Z,0.20
2018-12-13T22:19:43.068Z,0.10
2018-12-13T22:22:11.594Z,-0.10
2018-12-13T22:24:40.084Z,-0.40
2018-12-13T22:27:08.621Z,-1.00
2018-12-13T22:29:37.130Z,-0.40
2018-12-13T22:32:06.390Z,-0.80
2018-12-13T22:34:35.237Z,-0.70
2018-12-13T22:37:04.102Z,-0.80
2018-12-13T22:39:32.601Z,-0.80
2018-12-13T22:42:01.142Z,-1.00
2018-12-13T22:44:29.693Z,-1.00
2018-12-13T22:46:58.425Z,-0.60
2018-12-13T22:49:26.928Z,-0.80
2018-12-13T22:51:55.580Z,-1.30
2018-12-13T22:54:24.100Z,-0.70
2018-12-13T22:56:52.625Z,-0.40
2018-12-13T22:59:21.164Z,-0.60
2018-12-13T23:01:49.908Z,-0.90
2018-12-13T23:04:18.409Z,0.00
2018-12-13T23:06:46.939Z,-1.30
2018-12-13T23:09:15.472Z,-1.10
2018-12-13T23:11:43.999Z,-0.50
2018-12-13T23:14:12.797Z,-0.90
2018-12-13T23:16:41.332Z,-0.80
2018-12-13T23:19:09.824Z,-0.80
2018-12-13T23:21:38.421Z,-0.80
2018-12-13T23:24:07.031Z,-0.30
2018-12-13T23:26:35.585Z,-0.60
2018-12-13T23:29:04.215Z,-0.50
2018-12-13T23:31:32.766Z,-0.70
2018-12-13T23:34:01.247Z,0.10
2018-12-13T23:36:29.778Z,-0.50
2018-12-13T23:38:58.302Z,-0.70
2018-12-13T23:41:27.148Z,-0.10
2018-12-13T23:43:55.669Z,-0.60
2018-12-13T23:46:24.176Z,-0.40
2018-12-13T23:48:52.799Z,-0.20
2018-12-13T23:51:21.328Z,-0.90
2018-12-13T23:53:49.852Z,-0.50
2018-12-13T23:56:18.497Z,-1.20
2018-12-13T23:58:47.355Z,-0.50
